Time;durP1;ratioP1;P1;durP2;ratioP2;P2;SDS_P1;SDS_P2;PMS_P1;PMS_P2;Temp;Humidity;BMP_temperature;BMP_pressure;BME280_temperature;BME280_humidity;BME280_pressure;Samples;Min_cycle;Max_cycle;Signal;HPM_P1;HPM_P2
2023/01/26 00:01:13;;;;;;;13.27;7.30;;;5.40;68.90;;;;;;2393951;53;21906;-72
2023/01/26 00:03:39;;;;;;;15.48;7.50;;;5.40;69.10;;;;;;2424039;53;22058;-72
2023/01/26 00:06:07;;;;;;;13.75;7.45;;;5.40;69.20;;;;;;2304562;54;20976;-72
2023/01/26 00:08:37;;;;;;;15.00;7.72;;;5.40;69.20;;;;;;2322311;54;21060;-72
2023/01/26 00:11:07;;;;;;;15.57;8.43;;;5.40;69.20;;;;;;2390922;53;21271;-72
2023/01/26 00:13:33;;;;;;;14.20;7.78;;;5.40;69.10;;;;;;2544171;53;20969;-72
2023/01/26 00:16:00;;;;;;;17.42;8.68;;;5.40;69.20;;;;;;2410994;53;21047;-72
2023/01/26 00:18:27;;;;;;;16.12;8.27;;;5.30;69.10;;;;;;2305314;54;21056;-72
2023/01/26 00:20:57;;;;;;;15.90;8.45;;;5.30;69.00;;;;;;2305389;54;20957;-72
2023/01/26 00:23:24;;;;;;;15.48;8.38;;;5.40;69.00;;;;;;2305054;54;20965;-72
2023/01/26 00:25:51;;;;;;;14.68;7.37;;;5.30;68.90;;;;;;2304731;54;21072;-72
2023/01/26 00:28:17;;;;;;;11.95;6.20;;;5.30;69.00;;;;;;2305573;54;21000;-72
2023/01/26 00:30:44;;;;;;;14.15;6.95;;;5.30;69.10;;;;;;2367401;53;20976;-72
2023/01/26 00:33:11;;;;;;;15.85;8.15;;;5.30;69.20;;;;;;2305133;54;20985;-72
2023/01/26 00:35:43;;;;;;;15.23;7.90;;;5.30;69.20;;;;;;2553643;53;21167;-72
2023/01/26 00:38:12;;;;;;;15.07;7.78;;;5.30;69.10;;;;;;2492198;53;21075;-72
2023/01/26 00:40:39;;;;;;;16.00;7.72;;;5.30;69.10;;;;;;2426686;53;21952;-72
2023/01/26 00:43:05;;;;;;;14.20;7.55;;;5.30;69.10;;;;;;2305142;54;20937;-72
2023/01/26 00:45:33;;;;;;;14.05;7.65;;;5.30;69.10;;;;;;2303698;54;21064;-72
2023/01/26 00:47:59;;;;;;;13.93;6.55;;;5.30;69.10;;;;;;2307644;54;21013;-72
2023/01/26 00:50:27;;;;;;;12.35;6.68;;;5.30;69.20;;;;;;2327175;53;20953;-72
2023/01/26 00:52:53;;;;;;;13.02;6.80;;;5.20;69.10;;;;;;2305448;54;21472;-72
2023/01/26 00:55:19;;;;;;;16.48;7.65;;;5.30;69.20;;;;;;2305324;54;20945;-72
2023/01/26 00:57:46;;;;;;;15.00;7.40;;;5.30;69.20;;;;;;2544432;53;22135;-72
2023/01/26 01:00:15;;;;;;;11.63;6.43;;;5.30;69.30;;;;;;2538721;53;22036;-72
2023/01/26 01:02:42;;;;;;;15.55;7.43;;;5.30;69.30;;;;;;2306886;53;20909;-73
2023/01/26 01:05:08;;;;;;;13.93;7.35;;;5.30;69.30;;;;;;2312715;54;20953;-71
2023/01/26 01:07:35;;;;;;;15.75;7.50;;;5.30;69.20;;;;;;2311110;54;20949;-72
2023/01/26 01:10:01;;;;;;;14.82;7.50;;;5.30;69.30;;;;;;2304923;54;20949;-72
2023/01/26 01:12:27;;;;;;;13.48;6.68;;;5.30;69.30;;;;;;2305116;54;21623;-72
2023/01/26 01:14:55;;;;;;;16.33;7.68;;;5.30;69.30;;;;;;2324168;53;21109;-71
2023/01/26 01:17:22;;;;;;;15.70;7.32;;;5.30;69.40;;;;;;2311558;53;20992;-71
2023/01/26 01:19:48;;;;;;;17.60;8.00;;;5.30;69.30;;;;;;2328273;53;21098;-72
2023/01/26 01:22:14;;;;;;;16.87;7.68;;;5.30;69.20;;;;;;2307441;53;20949;-72
2023/01/26 01:24:40;;;;;;;20.95;9.07;;;5.30;69.20;;;;;;2302294;54;21067;-73
2023/01/26 01:27:07;;;;;;;15.48;8.25;;;5.30;69.20;;;;;;2304643;54;20933;-72
2023/01/26 01:29:33;;;;;;;16.35;8.15;;;5.30;69.10;;;;;;2509632;53;20978;-72
2023/01/26 01:32:00;;;;;;;17.35;8.57;;;5.30;69.20;;;;;;2310255;53;21018;-72
2023/01/26 01:34:26;;;;;;;19.83;8.57;;;5.30;69.10;;;;;;2457105;53;20940;-72
2023/01/26 01:36:53;;;;;;;17.80;8.65;;;5.30;69.10;;;;;;2333677;53;20972;-72
2023/01/26 01:39:19;;;;;;;14.43;7.45;;;5.30;69.10;;;;;;2378255;53;21013;-72
2023/01/26 01:41:49;;;;;;;17.87;8.68;;;5.30;69.10;;;;;;2330763;53;20994;-73
2023/01/26 01:44:22;;;;;;;18.85;8.15;;;5.30;69.10;;;;;;2572127;53;21751;-72
2023/01/26 01:47:01;;;;;;;15.98;8.65;;;5.30;69.10;;;;;;2301162;53;20985;-72
2023/01/26 01:49:45;;;;;;;17.02;8.20;;;5.30;69.00;;;;;;2305133;54;20957;-72
2023/01/26 01:52:27;;;;;;;18.58;9.05;;;5.30;69.50;;;;;;2361708;53;20949;-72
2023/01/26 01:55:06;;;;;;;20.45;9.38;;;5.20;68.50;;;;;;2304855;54;20920;-72
2023/01/26 01:57:46;;;;;;;18.30;8.85;;;5.20;68.60;;;;;;2408029;53;21052;-72
2023/01/26 02:00:17;;;;;;;15.38;7.85;;;5.20;68.50;;;;;;2493018;53;21000;-72
2023/01/26 02:03:09;;;;;;;15.25;7.82;;;5.20;68.50;;;;;;2304950;54;20965;-72
2023/01/26 02:05:55;;;;;;;13.95;6.40;;;5.10;68.50;;;;;;2343704;53;21012;-72
2023/01/26 02:08:28;;;;;;;13.77;7.32;;;5.10;68.60;;;;;;2327740;53;21053;-71
2023/01/26 02:10:55;;;;;;;15.05;7.20;;;5.10;68.70;;;;;;2306246;54;20997;-72
2023/01/26 02:13:22;;;;;;;16.50;8.10;;;5.10;68.80;;;;;;2304847;54;21416;-71
2023/01/26 02:15:48;;;;;;;13.00;7.25;;;5.10;68.90;;;;;;2473368;53;21020;-72
2023/01/26 02:18:15;;;;;;;16.98;8.30;;;5.00;68.70;;;;;;2304956;54;20993;-72
2023/01/26 02:20:59;;;;;;;13.98;7.12;;;5.00;68.70;;;;;;2544177;53;21022;-72
2023/01/26 02:30:14;;;;;;;16.85;8.30;;;5.10;68.70;;;;;;2303819;54;20936;-71
2023/01/26 02:32:40;;;;;;;12.37;5.47;;;5.00;68.20;;;;;;2314874;53;22216;-72
2023/01/26 02:35:07;;;;;;;14.43;6.90;;;5.00;68.60;;;;;;2333954;53;21097;-72
2023/01/26 02:37:36;;;;;;;16.75;7.25;;;5.00;68.80;;;;;;2300478;53;20944;-72
2023/01/26 02:40:06;;;;;;;15.30;7.50;;;5.00;68.80;;;;;;2281240;55;20948;-73
2023/01/26 02:42:40;;;;;;;16.92;7.87;;;5.00;68.80;;;;;;2307849;54;20988;-72
2023/01/26 02:45:07;;;;;;;17.33;7.82;;;4.90;68.70;;;;;;2392682;53;20993;-72
2023/01/26 02:47:34;;;;;;;14.55;7.53;;;4.90;68.70;;;;;;2347705;53;20964;-72
2023/01/26 02:50:00;;;;;;;16.05;7.35;;;4.90;68.80;;;;;;2303800;54;21509;-72
2023/01/26 02:52:28;;;;;;;16.35;8.10;;;4.90;68.90;;;;;;2303819;54;21568;-72
2023/01/26 02:57:40;;;;;;;19.10;8.55;;;4.90;68.90;;;;;;2321750;54;21059;-72
2023/01/26 03:00:08;;;;;;;18.70;9.40;;;4.90;68.70;;;;;;2324987;53;21854;-72
2023/01/26 03:02:35;;;;;;;18.27;8.75;;;4.90;68.70;;;;;;2303847;54;21448;-71
2023/01/26 03:05:03;;;;;;;18.77;9.40;;;4.90;68.70;;;;;;2303849;54;20929;-72
2023/01/26 03:07:29;;;;;;;16.52;7.70;;;4.90;68.70;;;;;;2303314;54;21881;-72
2023/01/26 03:09:57;;;;;;;17.85;7.80;;;4.90;68.70;;;;;;2314464;53;22016;-71
2023/01/26 03:12:24;;;;;;;18.60;8.88;;;4.90;68.70;;;;;;2303743;54;21527;-72
2023/01/26 03:17:36;;;;;;;18.00;8.65;;;4.80;68.70;;;;;;2282258;55;21056;-72
2023/01/26 03:28:21;;;;;;;20.15;9.05;;;4.80;68.80;;;;;;2335627;53;20969;-72
2023/01/26 03:30:50;;;;;;;24.80;10.32;;;4.80;68.80;;;;;;2450633;53;20981;-72
2023/01/26 03:33:17;;;;;;;19.77;9.85;;;4.80;68.80;;;;;;2304841;54;22510;-72
2023/01/26 03:35:44;;;;;;;19.87;9.95;;;4.80;68.80;;;;;;2443943;53;20984;-73
2023/01/26 03:38:11;;;;;;;20.17;9.52;;;4.80;68.70;;;;;;2305148;54;20944;-72
2023/01/26 03:57:13;;;;;;;15.63;7.75;;;4.70;69.10;;;;;;2305649;54;20933;-72
2023/01/26 03:59:39;;;;;;;16.58;7.55;;;4.80;69.30;;;;;;2356197;53;22162;-72
2023/01/26 04:10:25;;;;;;;16.83;7.40;;;4.80;69.20;;;;;;2479114;53;20969;-72
2023/01/26 04:23:55;;;;;;;17.12;7.62;;;4.80;69.10;;;;;;2541246;53;20996;-72
2023/01/26 04:26:24;;;;;;;16.50;7.32;;;4.80;69.10;;;;;;2299786;54;21013;-71
2023/01/26 04:28:51;;;;;;;16.58;6.25;;;4.80;69.20;;;;;;2333233;53;21374;-72
2023/01/26 04:31:17;;;;;;;15.48;7.90;;;4.90;69.30;;;;;;2300319;54;20961;-72
2023/01/26 04:33:44;;;;;;;16.55;7.35;;;4.80;69.30;;;;;;2299770;54;21554;-72
2023/01/26 04:36:11;;;;;;;14.90;6.78;;;4.80;69.30;;;;;;2440509;53;20956;-72
2023/01/26 04:38:37;;;;;;;17.95;7.93;;;4.80;69.30;;;;;;2356643;53;21016;-72
2023/01/26 04:41:03;;;;;;;17.77;7.65;;;4.80;69.20;;;;;;2299826;54;20948;-72
2023/01/26 04:43:30;;;;;;;15.70;7.97;;;4.90;69.20;;;;;;2300431;54;21412;-72
2023/01/26 04:45:57;;;;;;;13.05;6.22;;;4.90;69.20;;;;;;2336800;53;21489;-72
2023/01/26 04:48:26;;;;;;;12.00;6.18;;;4.90;69.20;;;;;;2296704;54;21080;-72
2023/01/26 04:50:56;;;;;;;14.77;6.95;;;4.90;69.30;;;;;;2317968;53;22153;-72
2023/01/26 04:53:23;;;;;;;14.48;6.97;;;4.90;69.20;;;;;;2316819;53;20965;-72
2023/01/26 04:55:49;;;;;;;13.55;6.37;;;4.90;69.20;;;;;;2295671;54;21969;-72
2023/01/26 04:58:16;;;;;;;14.70;6.78;;;4.90;69.20;;;;;;2294530;54;20975;-72
2023/01/26 05:00:42;;;;;;;13.98;6.82;;;4.90;69.10;;;;;;2294154;54;20952;-72
2023/01/26 05:03:08;;;;;;;13.93;7.03;;;4.90;69.10;;;;;;2306285;54;21012;-72
2023/01/26 05:05:36;;;;;;;18.33;7.53;;;4.90;69.00;;;;;;2318240;53;21034;-72
2023/01/26 05:08:04;;;;;;;13.88;7.05;;;5.00;69.10;;;;;;2295594;53;21321;-72
2023/01/26 05:10:30;;;;;;;15.07;7.50;;;4.90;69.00;;;;;;2294497;54;20936;-72
2023/01/26 05:12:57;;;;;;;15.30;7.75;;;4.90;69.00;;;;;;2315350;53;21012;-73
2023/01/26 05:15:23;;;;;;;14.55;7.40;;;4.90;69.00;;;;;;2294543;54;20989;-72
2023/01/26 05:17:49;;;;;;;17.52;7.85;;;4.90;68.90;;;;;;2403145;53;20948;-72
2023/01/26 05:20:16;;;;;;;15.50;7.87;;;4.90;68.80;;;;;;2294330;54;20951;-72
2023/01/26 05:22:42;;;;;;;19.02;7.85;;;4.90;68.70;;;;;;2341105;53;20933;-72
2023/01/26 05:25:58;;;;;;;16.98;8.05;;;4.90;68.70;;;;;;2294561;54;20968;-72
2023/01/26 05:28:24;;;;;;;15.10;7.62;;;4.90;68.50;;;;;;2386760;53;22016;-72
2023/01/26 05:30:50;;;;;;;16.90;7.97;;;4.90;68.70;;;;;;2294513;54;21056;-72
2023/01/26 05:33:20;;;;;;;18.70;7.87;;;4.80;68.70;;;;;;2294526;54;20941;-72
2023/01/26 05:35:53;;;;;;;15.38;7.75;;;4.80;68.70;;;;;;2354494;53;21420;-72
2023/01/26 05:38:19;;;;;;;;;;;4.80;68.60;;;;;;2298044;54;20968;-72
2023/01/26 05:40:45;;;;;;;17.42;7.50;;;4.80;68.20;;;;;;2294466;54;20079;-72
2023/01/26 05:43:12;;;;;;;20.73;8.40;;;4.80;68.60;;;;;;2294855;54;22336;-72
2023/01/26 05:45:38;;;;;;;16.83;8.13;;;4.80;68.60;;;;;;2294161;54;21341;-72
2023/01/26 05:48:05;;;;;;;17.42;8.13;;;4.80;68.70;;;;;;2427811;53;21088;-72
2023/01/26 05:50:31;;;;;;;16.55;8.38;;;4.80;68.70;;;;;;2294473;54;20941;-73
2023/01/26 05:52:59;;;;;;;17.40;7.95;;;4.80;68.70;;;;;;2294959;54;21037;-72
2023/01/26 05:55:28;;;;;;;16.20;7.30;;;4.80;68.90;;;;;;2532936;53;20965;-72
2023/01/26 05:57:55;;;;;;;20.20;8.75;;;4.80;69.00;;;;;;2295015;54;20925;-73
2023/01/26 06:00:22;;;;;;;18.35;8.65;;;4.80;69.00;;;;;;2301756;54;20980;-72
2023/01/26 06:02:48;;;;;;;17.33;7.90;;;4.80;69.00;;;;;;2294796;54;21572;-72
2023/01/26 06:05:15;;;;;;;16.20;7.62;;;4.80;68.90;;;;;;2295340;54;20952;-72
2023/01/26 06:07:41;;;;;;;15.93;7.53;;;4.80;68.90;;;;;;2294878;54;21076;-72
2023/01/26 06:10:08;;;;;;;19.48;8.85;;;4.80;69.00;;;;;;2294514;54;20960;-72
2023/01/26 06:12:37;;;;;;;17.95;8.25;;;4.80;69.00;;;;;;2403060;53;20983;-73
2023/01/26 06:15:04;;;;;;;17.73;8.63;;;4.80;68.90;;;;;;2294746;54;21540;-72
2023/01/26 06:17:31;;;;;;;18.23;8.60;;;4.70;68.80;;;;;;2449559;53;21020;-72
2023/01/26 06:19:57;;;;;;;16.80;8.35;;;4.70;68.80;;;;;;2368336;53;20941;-72
2023/01/26 06:22:23;;;;;;;17.23;7.95;;;4.70;68.80;;;;;;2423378;53;21689;-72
2023/01/26 06:24:50;;;;;;;17.00;8.40;;;4.70;68.90;;;;;;2294676;54;22106;-73
2023/01/26 06:27:17;;;;;;;16.42;8.65;;;4.80;69.00;;;;;;2294670;54;21394;-72
2023/01/26 06:29:44;;;;;;;19.42;8.88;;;4.80;69.00;;;;;;2440968;53;20972;-72
2023/01/26 06:32:14;;;;;;;18.98;8.60;;;4.80;69.00;;;;;;2294679;54;20972;-73
2023/01/26 06:34:40;;;;;;;17.65;8.63;;;4.80;68.90;;;;;;2314797;53;20960;-72
2023/01/26 06:37:06;;;;;;;18.52;8.93;;;4.80;68.90;;;;;;2529607;53;21008;-72
2023/01/26 06:39:33;;;;;;;16.98;8.55;;;4.80;68.90;;;;;;2294435;54;20976;-72
2023/01/26 06:41:59;;;;;;;17.45;8.18;;;4.80;68.80;;;;;;2294695;54;21525;-73
2023/01/26 06:44:25;;;;;;;17.20;8.15;;;4.80;68.90;;;;;;2456900;53;21403;-72
2023/01/26 06:46:52;;;;;;;19.23;8.95;;;4.80;68.90;;;;;;2294269;54;20948;-73
2023/01/26 06:49:18;;;;;;;19.17;8.77;;;4.70;68.70;;;;;;2300171;54;20956;-73
2023/01/26 06:52:02;;;;;;;18.10;8.30;;;4.70;68.90;;;;;;2328566;54;20972;-72
2023/01/26 06:54:28;;;;;;;16.58;7.65;;;4.70;68.70;;;;;;2311674;54;21451;-73
2023/01/26 06:56:55;;;;;;;15.60;7.82;;;4.80;68.90;;;;;;2294853;54;21336;-72
2023/01/26 06:59:21;;;;;;;16.08;8.15;;;4.70;68.80;;;;;;2400165;53;21088;-72
2023/01/26 07:01:47;;;;;;;18.30;9.30;;;4.70;68.80;;;;;;2362221;53;20945;-72
2023/01/26 07:04:14;;;;;;;19.75;8.88;;;4.70;68.90;;;;;;2392546;53;20969;-73
2023/01/26 07:06:41;;;;;;;17.27;7.35;;;4.80;69.00;;;;;;2329755;53;21899;-72
2023/01/26 07:09:07;;;;;;;19.73;8.65;;;4.80;69.10;;;;;;2301156;53;20940;-73
2023/01/26 07:11:33;;;;;;;19.83;9.48;;;4.80;69.70;;;;;;2294655;54;21387;-72
2023/01/26 07:14:00;;;;;;;20.42;9.55;;;4.80;69.00;;;;;;2294804;54;22006;-72
2023/01/26 07:16:27;;;;;;;16.83;8.80;;;4.70;68.80;;;;;;2294570;54;20929;-72
2023/01/26 07:18:54;;;;;;;18.12;8.82;;;4.80;68.80;;;;;;2303026;54;20988;-73
2023/01/26 07:21:21;;;;;;;22.15;9.40;;;4.80;68.80;;;;;;2328228;53;21037;-72
2023/01/26 07:23:48;;;;;;;21.52;9.40;;;4.80;68.80;;;;;;2306284;53;20945;-73
2023/01/26 07:26:15;;;;;;;19.40;8.45;;;4.70;68.70;;;;;;2295892;54;21494;-73
2023/01/26 07:28:41;;;;;;;20.48;10.00;;;4.70;68.70;;;;;;2348323;53;21043;-72
2023/01/26 07:31:09;;;;;;;19.02;9.10;;;4.70;68.70;;;;;;2305372;53;20965;-72
2023/01/26 07:33:35;;;;;;;20.80;9.55;;;4.70;68.70;;;;;;2294802;54;21475;-72
2023/01/26 07:36:02;;;;;;;19.75;9.90;;;4.70;68.70;;;;;;2294382;54;21052;-72
2023/01/26 07:38:29;;;;;;;22.15;9.35;;;4.70;68.70;;;;;;2294427;54;21151;-72
2023/01/26 07:40:55;;;;;;;17.48;8.05;;;4.70;68.70;;;;;;2348871;53;21056;-73
2023/01/26 07:43:22;;;;;;;18.45;8.60;;;4.70;68.70;;;;;;2294364;54;21055;-72
2023/01/26 07:45:50;;;;;;;18.33;8.65;;;4.70;68.80;;;;;;2486296;53;21373;-73
2023/01/26 07:48:17;;;;;;;16.75;7.60;;;4.60;68.80;;;;;;2294713;54;22409;-72
2023/01/26 07:50:46;;;;;;;15.30;7.90;;;4.70;69.00;;;;;;2344842;53;20932;-72
2023/01/26 07:53:14;;;;;;;16.60;7.95;;;4.70;69.00;;;;;;2360218;53;20941;-72
2023/01/26 07:55:43;;;;;;;16.70;8.43;;;4.70;69.00;;;;;;2294587;54;21020;-72
2023/01/26 07:58:10;;;;;;;15.27;7.00;;;4.70;68.90;;;;;;2295837;54;20890;-71
2023/01/26 08:00:36;;;;;;;15.40;7.18;;;4.70;68.80;;;;;;2293504;54;21439;-72
2023/01/26 08:03:02;;;;;;;18.00;7.97;;;4.70;68.90;;;;;;2297999;54;21890;-71
2023/01/26 08:05:29;;;;;;;18.12;8.23;;;4.70;68.90;;;;;;2305085;53;20985;-72
2023/01/26 08:07:59;;;;;;;18.05;8.38;;;4.70;68.90;;;;;;2293856;54;21800;-73
2023/01/26 08:10:26;;;;;;;17.20;8.15;;;4.70;68.80;;;;;;2293950;54;21016;-72
2023/01/26 08:12:52;;;;;;;20.58;8.25;;;4.70;68.80;;;;;;2363682;53;21040;-72
2023/01/26 08:15:19;;;;;;;15.82;7.72;;;4.70;68.90;;;;;;2294646;54;20968;-72
2023/01/26 08:17:45;;;;;;;19.52;8.90;;;4.70;69.00;;;;;;2294254;54;21392;-72
2023/01/26 08:20:12;;;;;;;16.70;8.15;;;4.70;69.10;;;;;;2294783;54;22252;-72
2023/01/26 08:22:39;;;;;;;18.98;8.90;;;4.70;69.20;;;;;;2294227;54;21466;-71
2023/01/26 08:25:06;;;;;;;18.10;8.52;;;4.70;69.20;;;;;;2294761;54;20957;-72
2023/01/26 08:27:32;;;;;;;17.33;8.18;;;4.80;69.30;;;;;;2294579;54;21008;-72
2023/01/26 08:29:59;;;;;;;16.17;8.00;;;4.80;69.30;;;;;;2294860;54;21080;-73
2023/01/26 08:32:25;;;;;;;19.25;8.75;;;4.80;69.20;;;;;;2294451;54;21068;-72
2023/01/26 08:34:51;;;;;;;17.17;7.72;;;4.80;69.20;;;;;;2429664;53;20976;-72
2023/01/26 08:37:17;;;;;;;16.00;7.93;;;4.80;69.10;;;;;;2294542;54;20980;-73
2023/01/26 08:39:44;;;;;;;17.08;8.20;;;4.80;69.10;;;;;;2294233;54;22132;-72
2023/01/26 08:42:10;;;;;;;17.87;8.15;;;4.80;69.10;;;;;;2294753;54;20964;-72
2023/01/26 08:44:36;;;;;;;16.10;7.03;;;4.80;69.10;;;;;;2320408;53;21022;-73
2023/01/26 08:47:03;;;;;;;18.40;8.30;;;4.80;69.80;;;;;;2294851;54;21008;-72
2023/01/26 08:49:29;;;;;;;16.27;7.95;;;4.80;69.10;;;;;;2431179;53;21009;-72
2023/01/26 08:51:55;;;;;;;16.00;7.97;;;4.80;69.00;;;;;;2294015;54;21091;-74
2023/01/26 08:54:22;;;;;;;16.90;8.50;;;4.80;68.90;;;;;;2294845;54;21012;-75
2023/01/26 08:56:48;;;;;;;18.48;8.73;;;4.80;69.00;;;;;;2533478;53;21036;-73
2023/01/26 08:59:14;;;;;;;17.52;8.27;;;4.90;69.00;;;;;;2347071;53;21024;-72
2023/01/26 09:01:41;;;;;;;17.00;8.52;;;4.90;69.00;;;;;;2292979;54;21467;-72
2023/01/26 09:04:07;;;;;;;21.65;9.57;;;4.90;69.00;;;;;;2293424;54;21603;-73
2023/01/26 09:06:33;;;;;;;18.05;7.78;;;4.90;68.90;;;;;;2293363;53;21332;-72
2023/01/26 09:08:59;;;;;;;20.08;9.15;;;4.90;68.90;;;;;;2337398;53;20948;-72
2023/01/26 09:11:27;;;;;;;16.10;8.20;;;4.80;69.50;;;;;;2292846;54;21438;-72
2023/01/26 09:13:55;;;;;;;14.13;7.25;;;4.90;68.90;;;;;;2342078;53;21068;-72
2023/01/26 09:16:22;;;;;;;17.08;8.02;;;4.80;68.80;;;;;;2432806;53;20940;-72
2023/01/26 09:18:49;;;;;;;14.87;7.75;;;4.90;69.00;;;;;;2531614;53;21637;-73
2023/01/26 09:21:16;;;;;;;17.02;7.80;;;4.90;69.00;;;;;;2293567;54;21052;-72
2023/01/26 09:23:42;;;;;;;17.73;8.98;;;4.90;69.00;;;;;;2293075;54;20992;-72
2023/01/26 09:26:08;;;;;;;17.02;8.15;;;4.90;68.90;;;;;;2293677;53;21423;-72
2023/01/26 09:28:35;;;;;;;14.82;7.47;;;4.90;68.90;;;;;;2294325;54;21061;-72
2023/01/26 09:31:09;;;;;;;17.17;8.00;;;4.90;68.80;;;;;;2417278;53;20996;-72
2023/01/26 09:33:35;;;;;;;17.67;7.75;;;4.80;68.80;;;;;;2299827;54;20953;-72
2023/01/26 09:36:08;;;;;;;17.40;8.40;;;4.90;68.90;;;;;;2294521;54;21016;-72
2023/01/26 09:38:34;;;;;;;14.82;7.22;;;4.90;68.80;;;;;;2294483;54;20977;-72
2023/01/26 09:41:21;;;;;;;13.20;7.12;;;4.90;68.90;;;;;;2294387;54;21534;-72
2023/01/26 09:43:56;;;;;;;12.68;6.20;;;4.90;69.00;;;;;;2294964;54;21049;-72
2023/01/26 09:48:08;;;;;;;14.18;7.37;;;4.90;69.10;;;;;;2400359;53;20973;-73
2023/01/26 09:51:27;;;;;;;16.15;7.35;;;4.90;68.50;;;;;;2358862;53;21040;-73
2023/01/26 09:54:03;;;;;;;14.38;6.90;;;5.00;68.70;;;;;;2295025;54;20929;-72
2023/01/26 09:56:33;;;;;;;12.77;6.55;;;5.00;69.00;;;;;;2294702;54;21363;-72
2023/01/26 09:59:05;;;;;;;17.55;7.35;;;5.00;69.10;;;;;;2554785;53;21061;-73
2023/01/26 10:05:01;;;;;;;16.98;8.10;;;5.00;69.00;;;;;;2297343;53;20964;-72
2023/01/26 10:07:27;;;;;;;15.13;6.37;;;4.90;68.70;;;;;;2294748;54;21107;-71
2023/01/26 10:09:54;;;;;;;14.85;6.95;;;5.00;68.90;;;;;;2293761;54;20944;-74
2023/01/26 10:12:30;;;;;;;15.13;7.43;;;5.00;69.00;;;;;;2294670;54;21041;-75
2023/01/26 10:15:57;;;;;;;20.23;8.10;;;5.00;68.90;;;;;;2531919;53;21341;-75
2023/01/26 10:18:29;;;;;;;17.85;8.35;;;5.00;68.50;;;;;;2294101;54;20984;-74
2023/01/26 10:20:57;;;;;;;17.30;7.73;;;5.00;69.00;;;;;;2363784;53;21453;-76
2023/01/26 10:23:33;;;;;;;15.65;7.37;;;5.00;69.20;;;;;;2295045;54;20965;-74
2023/01/26 10:26:18;;;;;;;16.10;7.85;;;5.00;69.20;;;;;;2425573;53;21119;-73
2023/01/26 10:28:45;;;;;;;15.65;7.57;;;5.00;69.20;;;;;;2294351;54;21024;-74
2023/01/26 10:31:15;;;;;;;14.10;6.97;;;5.10;69.30;;;;;;2294789;54;22091;-73
2023/01/26 10:33:51;;;;;;;13.70;6.80;;;5.10;69.30;;;;;;2297899;54;21803;-73
2023/01/26 10:36:17;;;;;;;14.68;7.28;;;5.10;69.40;;;;;;2505361;53;21004;-75
2023/01/26 10:38:44;;;;;;;13.80;7.82;;;5.20;69.50;;;;;;2293861;54;20976;-72
2023/01/26 10:41:28;;;;;;;15.25;7.47;;;5.20;69.40;;;;;;2300276;54;21060;-75
2023/01/26 10:44:32;;;;;;;16.67;7.72;;;5.20;69.10;;;;;;2295842;54;21005;-74
2023/01/26 10:47:32;;;;;;;12.95;6.70;;;5.20;68.90;;;;;;2532355;53;20913;-73
2023/01/26 10:53:30;;;;;;;14.13;7.12;;;5.20;68.60;;;;;;2298704;54;21063;-75
2023/01/26 10:56:00;;;;;;;13.35;5.95;;;5.30;68.50;;;;;;2294441;54;20956;-75
2023/01/26 10:58:48;;;;;;;13.55;6.30;;;5.30;69.00;;;;;;2297778;54;21037;-75
2023/01/26 11:01:17;;;;;;;14.32;6.55;;;5.30;68.70;;;;;;2319040;53;20917;-74
2023/01/26 11:04:04;;;;;;;11.75;5.75;;;5.20;68.80;;;;;;2294387;54;20969;-72
2023/01/26 11:06:31;;;;;;;12.25;5.85;;;5.30;68.70;;;;;;2383300;53;20957;-72
2023/01/26 11:09:16;;;;;;;10.23;5.07;;;5.20;68.80;;;;;;2473416;53;20972;-72
2023/01/26 11:12:00;;;;;;;10.90;5.47;;;5.20;68.70;;;;;;2532767;53;21008;-75
2023/01/26 11:14:26;;;;;;;12.45;6.20;;;5.30;68.80;;;;;;2294771;54;21560;-75
2023/01/26 11:18:32;;;;;;;12.30;6.07;;;5.30;68.80;;;;;;2293796;54;21043;-73
2023/01/26 11:21:27;;;;;;;11.30;5.93;;;5.30;68.50;;;;;;2294955;53;20933;-72
2023/01/26 11:24:22;;;;;;;12.30;6.12;;;5.20;68.20;;;;;;2371005;53;20960;-75
2023/01/26 11:27:09;;;;;;;12.57;5.95;;;5.20;68.40;;;;;;2294915;54;21055;-71
2023/01/26 11:34:38;;;;;;;11.52;5.82;;;5.30;68.70;;;;;;2294339;54;21618;-75
2023/01/26 11:40:00;;;;;;;10.10;4.93;;;5.30;68.00;;;;;;2294481;54;21388;-73
2023/01/26 11:42:48;;;;;;;11.63;5.28;;;5.20;68.20;;;;;;2294661;54;21109;-72
2023/01/26 11:45:36;;;;;;;12.60;6.82;;;5.20;68.50;;;;;;2387414;53;20976;-73
2023/01/26 11:48:37;;;;;;;13.13;6.62;;;5.20;68.40;;;;;;2352896;53;21048;-75
2023/01/26 11:51:08;;;;;;;14.52;6.62;;;5.20;68.40;;;;;;2294596;54;20936;-72
2023/01/26 11:54:14;;;;;;;14.98;7.12;;;5.20;68.60;;;;;;2304399;54;21120;-75
2023/01/26 11:56:54;;;;;;;12.75;5.87;;;5.20;68.40;;;;;;2294668;54;21328;-72
2023/01/26 12:02:53;;;;;;;16.20;7.28;;;5.20;68.40;;;;;;2294933;54;20996;-72
2023/01/26 12:05:22;;;;;;;12.90;6.40;;;5.20;68.50;;;;;;2298116;54;21005;-72
2023/01/26 12:08:00;;;;;;;13.25;6.40;;;5.20;68.60;;;;;;2311622;54;20960;-72
2023/01/26 12:10:46;;;;;;;14.20;6.47;;;5.20;68.50;;;;;;2313576;54;21029;-75
2023/01/26 12:13:38;;;;;;;12.63;5.45;;;5.20;68.50;;;;;;2309656;54;20977;-75
2023/01/26 12:16:37;;;;;;;12.93;6.28;;;5.20;68.60;;;;;;2305366;53;20964;-72
2023/01/26 12:19:37;;;;;;;14.10;7.15;;;5.20;68.50;;;;;;2305057;54;21115;-76
2023/01/26 12:22:17;;;;;;;13.50;6.32;;;5.20;68.30;;;;;;2305208;54;21011;-74
2023/01/26 12:24:57;;;;;;;15.50;7.25;;;5.20;68.50;;;;;;2304899;54;20989;-73
2023/01/26 12:27:54;;;;;;;15.40;7.47;;;5.20;68.40;;;;;;2304793;54;20936;-76
2023/01/26 12:30:30;;;;;;;16.67;7.20;;;5.20;68.50;;;;;;2305084;54;21415;-72
2023/01/26 12:32:57;;;;;;;15.73;7.45;;;5.20;68.60;;;;;;2305171;54;21023;-75
2023/01/26 12:35:47;;;;;;;15.45;7.30;;;5.20;68.60;;;;;;2304965;54;21023;-73
2023/01/26 12:38:35;;;;;;;17.83;7.30;;;5.30;68.50;;;;;;2544065;53;21123;-75
2023/01/26 12:44:28;;;;;;;15.77;6.93;;;5.20;68.30;;;;;;2312104;53;21028;-73
2023/01/26 12:47:37;;;;;;;16.73;6.60;;;5.10;67.80;;;;;;2414071;53;21134;-74
2023/01/26 12:50:14;;;;;;;15.15;6.57;;;5.20;68.10;;;;;;2312948;54;21942;-73
2023/01/26 12:53:12;;;;;;;14.25;6.93;;;5.20;68.40;;;;;;2368606;53;20985;-71
2023/01/26 12:55:50;;;;;;;13.10;6.22;;;5.20;68.20;;;;;;2313225;53;20957;-73
2023/01/26 12:58:49;;;;;;;13.27;5.90;;;5.20;68.40;;;;;;2332771;54;21003;-72
2023/01/26 13:01:16;;;;;;;13.82;6.28;;;5.10;68.10;;;;;;2298538;53;21302;-71
2023/01/26 13:03:59;;;;;;;13.10;6.97;;;5.10;68.40;;;;;;2516845;53;20921;-72
2023/01/26 13:06:26;;;;;;;12.55;6.37;;;5.10;68.30;;;;;;2314558;54;21008;-75
2023/01/26 13:09:26;;;;;;;14.77;6.72;;;5.10;68.20;;;;;;2314201;53;21016;-71
2023/01/26 13:11:58;;;;;;;15.27;6.68;;;5.10;67.80;;;;;;2314527;53;21627;-73
2023/01/26 13:14:36;;;;;;;18.23;5.93;;;5.10;68.20;;;;;;2555157;53;20980;-70
2023/01/26 13:18:58;;;;;;;15.35;6.20;;;5.00;68.00;;;;;;2314373;54;21359;-71
2023/01/26 13:21:42;;;;;;;12.73;5.78;;;5.00;68.20;;;;;;2314520;54;21462;-75
2023/01/26 13:25:11;;;;;;;14.85;6.65;;;5.00;68.10;;;;;;2314331;54;20969;-72
2023/01/26 13:28:00;;;;;;;13.52;6.43;;;4.90;67.50;;;;;;2445977;53;20953;-70
2023/01/26 13:30:32;;;;;;;11.18;5.95;;;5.00;67.90;;;;;;2314303;54;20997;-76
2023/01/26 13:33:22;;;;;;;11.90;5.93;;;4.90;68.10;;;;;;2314929;54;20993;-71
2023/01/26 13:35:49;;;;;;;13.32;6.68;;;4.90;68.10;;;;;;2323231;54;21014;-74
2023/01/26 13:38:52;;;;;;;11.93;5.97;;;4.90;68.30;;;;;;2331078;53;20937;-73
2023/01/26 13:41:20;;;;;;;13.68;6.57;;;4.90;67.90;;;;;;2291739;53;21001;-75
2023/01/26 13:44:25;;;;;;;12.20;5.37;;;4.90;68.30;;;;;;2313849;54;20960;-74
2023/01/26 13:46:57;;;;;;;12.65;6.18;;;4.90;68.30;;;;;;2314143;54;20957;-70
2023/01/26 13:49:41;;;;;;;13.18;6.22;;;4.90;68.40;;;;;;2314214;54;20929;-72
2023/01/26 13:52:26;;;;;;;12.45;5.85;;;4.90;68.40;;;;;;2314586;54;21044;-73
2023/01/26 13:54:55;;;;;;;12.60;6.28;;;4.90;68.40;;;;;;2314326;53;20953;-75
2023/01/26 13:57:25;;;;;;;13.10;5.90;;;4.90;68.60;;;;;;2330082;53;21026;-72
2023/01/26 13:59:57;;;;;;;13.25;6.07;;;4.90;68.60;;;;;;2518655;53;21052;-74
2023/01/26 14:02:31;;;;;;;13.93;6.70;;;4.90;68.50;;;;;;2316753;54;21072;-70
2023/01/26 14:04:58;;;;;;;14.65;7.30;;;4.90;68.40;;;;;;2314447;54;21079;-75
2023/01/26 14:07:31;;;;;;;16.17;7.50;;;4.90;68.40;;;;;;2314392;54;21086;-72
2023/01/26 14:09:59;;;;;;;15.70;7.87;;;4.90;68.30;;;;;;2314166;54;21036;-73
2023/01/26 14:12:35;;;;;;;12.37;6.20;;;4.90;68.20;;;;;;2314190;53;20976;-73
2023/01/26 14:15:03;;;;;;;15.73;7.05;;;4.90;68.00;;;;;;2340311;53;21038;-72
2023/01/26 14:17:38;;;;;;;13.52;6.65;;;4.90;68.00;;;;;;2468350;53;20964;-72
2023/01/26 14:20:26;;;;;;;16.12;6.82;;;4.80;67.90;;;;;;2313850;54;20945;-72
2023/01/26 14:23:20;;;;;;;13.60;6.68;;;4.80;67.70;;;;;;2339862;53;20958;-72
2023/01/26 14:26:10;;;;;;;17.05;7.95;;;4.80;67.70;;;;;;2314451;54;21707;-75
2023/01/26 14:28:39;;;;;;;14.68;6.85;;;4.80;67.70;;;;;;2312812;54;21874;-74
2023/01/26 14:31:19;;;;;;;14.77;6.05;;;4.80;67.90;;;;;;2313415;54;20976;-69
2023/01/26 14:33:52;;;;;;;14.68;6.87;;;4.70;67.80;;;;;;2431053;53;21201;-71
2023/01/26 14:36:19;;;;;;;13.75;6.25;;;4.70;67.90;;;;;;2328127;53;20957;-72